Time;durP1;ratioP1;P1;durP2;ratioP2;P2;SDS_P1;SDS_P2;PMS_P1;PMS_P2;Temp;Humidity;BMP_temperature;BMP_pressure;BME280_temperature;BME280_humidity;BME280_pressure;Samples;Min_cycle;Max_cycle;Signal;HPM_P1;HPM_P2
2024/01/01 11:29:42;;;;;;;5.93;1.30;;;;;;;;;;709502;27;20370;-69
2024/01/01 11:30:03;;;;;;;6.50;1.47;;;;;;;;;;711513;27;1439;-70
2024/01/01 11:30:23;;;;;;;7.27;1.60;;;;;;;;;;710819;27;903;-70
2024/01/01 11:30:44;;;;;;;6.15;1.45;;;;;;;;;;710832;27;1805;-69
2024/01/01 11:31:04;;;;;;;6.57;1.33;;;;;;;;;;711298;27;1631;-71
2024/01/01 11:31:25;;;;;;;7.93;1.50;;;;;;;;;;710929;27;982;-68
2024/01/01 11:31:45;;;;;;;7.82;1.98;;;;;;;;;;704100;28;4482;-70
2024/01/01 11:32:05;;;;;;;6.40;1.70;;;;;;;;;;705323;28;3969;-70
2024/01/01 11:32:25;;;;;;;7.93;1.57;;;;;;;;;;706520;28;952;-69
2024/01/01 11:32:46;;;;;;;7.75;1.30;;;;;;;;;;704416;28;1546;-71
2024/01/01 11:33:06;;;;;;;6.77;1.53;;;;;;;;;;706598;28;793;-68
2024/01/01 11:33:27;;;;;;;6.67;1.40;;;;;;;;;;699812;28;10438;-70
2024/01/01 11:34:04;;;;;;;7.53;1.60;;;;;;;;;;700427;28;10333;-70
2024/01/01 11:34:24;;;;;;;5.78;1.50;;;;;;;;;;701674;28;9833;-69
2024/01/01 11:35:02;;;;;;;5.90;1.80;;;;;;;;;;701019;28;4215;-69
2024/01/01 11:35:22;;;;;;;5.10;1.40;;;;;;;;;;702782;28;841;-68
2024/01/01 11:35:43;;;;;;;5.53;1.50;;;;;;;;;;700793;28;943;-69
2024/01/01 11:36:06;;;;;;;6.47;1.53;;;;;;;;;;701931;28;1307;-72
2024/01/01 11:36:27;;;;;;;6.18;1.50;;;;;;;;;;704067;28;828;-70
2024/01/01 11:36:47;;;;;;;6.53;1.50;;;;;;;;;;704539;28;1029;-69
2024/01/01 11:37:09;;;;;;;7.77;1.50;;;;;;;;;;704857;28;912;-69
2024/01/01 11:37:29;;;;;;;7.60;1.70;;;;;;;;;;703775;28;4298;-68
2024/01/01 11:37:49;;;;;;;7.03;1.60;;;;;;;;;;705494;28;1476;-70
2024/01/01 11:38:10;;;;;;;5.82;1.80;;;;;;;;;;705981;28;908;-69
2024/01/01 11:38:30;;;;;;;6.13;1.40;;;;;;;;;;704915;27;1305;-70
2024/01/01 11:38:51;;;;;;;6.20;1.30;;;;;;;;;;705004;28;1173;-70
2024/01/01 11:39:11;;;;;;;5.03;1.20;;;;;;;;;;705093;28;1212;-69
2024/01/01 11:39:31;;;;;;;4.88;1.25;;;;;;;;;;702372;28;5175;-68
2024/01/01 11:39:58;;;;;;;6.23;1.43;;;;;;;;;;705263;28;782;-68
2024/01/01 11:40:24;;;;;;;4.88;1.35;;;;;;;;;;704182;28;838;-70
2024/01/01 11:40:44;;;;;;;6.15;1.67;;;;;;;;;;703568;28;4334;-70
2024/01/01 11:41:05;;;;;;;6.67;1.70;;;;;;;;;;704883;28;856;-70
2024/01/01 11:41:26;;;;;;;6.78;1.70;;;;;;;;;;706634;28;964;-72
2024/01/01 11:41:47;;;;;;;5.40;1.60;;;;;;;;;;704280;28;923;-73
2024/01/01 11:42:07;;;;;;;6.05;1.70;;;;;;;;;;704914;28;1239;-72
2024/01/01 11:42:27;;;;;;;5.40;1.47;;;;;;;;;;705672;28;892;-72
2024/01/01 11:42:50;;;;;;;6.53;1.73;;;;;;;;;;700749;28;1211;-70
2024/01/01 11:43:10;;;;;;;5.20;1.52;;;;;;;;;;703190;28;904;-70
2024/01/01 11:43:31;;;;;;;7.03;1.47;;;;;;;;;;701081;28;4470;-67
2024/01/01 11:43:51;;;;;;;8.23;1.60;;;;;;;;;;702590;28;1334;-72
2024/01/01 11:44:13;;;;;;;5.23;1.30;;;;;;;;;;704280;28;892;-72
2024/01/01 11:44:33;;;;;;;5.47;1.23;;;;;;;;;;699195;28;960;-68
2024/01/01 11:45:11;;;;;;;5.07;1.23;;;;;;;;;;702157;28;872;-70
2024/01/01 11:45:32;;;;;;;5.90;1.45;;;;;;;;;;700125;28;1536;-70
2024/01/01 11:45:55;;;;;;;5.10;1.30;;;;;;;;;;704212;28;955;-70
2024/01/01 11:46:25;;;;;;;6.10;1.45;;;;;;;;;;701685;28;1216;-71
2024/01/01 11:46:46;;;;;;;6.45;1.63;;;;;;;;;;702656;28;4205;-67
2024/01/01 11:47:06;;;;;;;4.93;1.23;;;;;;;;;;704713;28;1523;-72
2024/01/01 11:47:27;;;;;;;5.87;1.47;;;;;;;;;;702353;28;1375;-69
2024/01/01 11:47:48;;;;;;;6.30;1.27;;;;;;;;;;701054;28;1019;-67
2024/01/01 11:48:09;;;;;;;7.35;1.30;;;;;;;;;;698927;28;1999;-70
2024/01/01 11:48:29;;;;;;;6.80;1.38;;;;;;;;;;699858;28;1451;-70
2024/01/01 11:48:55;;;;;;;6.37;1.90;;;;;;;;;;696643;28;1226;-71
2024/01/01 11:49:15;;;;;;;5.38;1.70;;;;;;;;;;698640;28;1965;-73
2024/01/01 11:49:36;;;;;;;5.13;1.40;;;;;;;;;;698561;28;4406;-68
2024/01/01 11:49:57;;;;;;;7.10;1.40;;;;;;;;;;701960;28;1000;-68
2024/01/01 11:50:17;;;;;;;6.00;1.30;;;;;;;;;;703586;28;1258;-72
2024/01/01 11:50:37;;;;;;;4.93;1.27;;;;;;;;;;699014;28;1376;-70
2024/01/01 11:51:02;;;;;;;5.65;1.40;;;;;;;;;;702570;28;876;-69
2024/01/01 11:51:23;;;;;;;6.82;1.52;;;;;;;;;;703081;28;1878;-70
2024/01/01 11:51:50;;;;;;;5.60;1.40;;;;;;;;;;699144;28;3862;-69
2024/01/01 11:52:16;;;;;;;6.03;1.50;;;;;;;;;;699163;28;975;-70
2024/01/01 11:52:37;;;;;;;7.22;1.50;;;;;;;;;;701664;28;4452;-70
2024/01/01 11:53:03;;;;;;;6.53;1.40;;;;;;;;;;701249;28;917;-70
2024/01/01 11:53:23;;;;;;;6.47;1.40;;;;;;;;;;702418;28;999;-68
2024/01/01 11:53:43;;;;;;;6.32;1.42;;;;;;;;;;703633;28;1116;-70
2024/01/01 11:54:10;;;;;;;7.10;1.40;;;;;;;;;;705011;28;916;-69
2024/01/01 11:54:30;;;;;;;6.38;1.30;;;;;;;;;;703296;28;1169;-66
2024/01/01 11:54:51;;;;;;;6.43;1.30;;;;;;;;;;704367;28;2273;-70
2024/01/01 11:55:11;;;;;;;6.90;1.40;;;;;;;;;;704901;28;770;-71
2024/01/01 11:55:32;;;;;;;7.70;1.70;;;;;;;;;;700623;28;4541;-74
2024/01/01 11:55:52;;;;;;;6.75;1.50;;;;;;;;;;703097;28;961;-68
2024/01/01 11:56:12;;;;;;;8.07;1.50;;;;;;;;;;702113;28;960;-71
2024/01/01 11:56:33;;;;;;;7.13;1.63;;;;;;;;;;702261;28;921;-70
2024/01/01 11:56:56;;;;;;;4.93;1.42;;;;;;;;;;700441;28;928;-70
2024/01/01 11:57:16;;;;;;;5.10;1.20;;;;;;;;;;701643;28;1384;-70
2024/01/01 11:57:37;;;;;;;6.18;1.20;;;;;;;;;;702164;28;1203;-68
2024/01/01 11:57:57;;;;;;;5.85;1.30;;;;;;;;;;701268;28;1653;-70
2024/01/01 11:58:18;;;;;;;6.60;1.40;;;;;;;;;;701423;28;758;-70
2024/01/01 11:58:38;;;;;;;5.33;1.33;;;;;;;;;;699458;28;4653;-71
2024/01/01 11:58:59;;;;;;;5.97;1.63;;;;;;;;;;700642;28;1329;-71
2024/01/01 11:59:22;;;;;;;5.05;1.42;;;;;;;;;;700961;28;826;-69
2024/01/01 11:59:42;;;;;;;6.20;1.50;;;;;;;;;;698963;28;1016;-69
2024/01/01 12:00:03;;;;;;;7.10;1.77;;;;;;;;;;701808;28;1149;-69
2024/01/01 12:00:29;;;;;;;5.63;1.55;;;;;;;;;;703352;28;1161;-68
2024/01/01 12:00:50;;;;;;;5.33;1.37;;;;;;;;;;700065;28;1235;-71
2024/01/01 12:01:10;;;;;;;6.60;1.40;;;;;;;;;;700710;28;925;-70
2024/01/01 12:01:31;;;;;;;5.33;1.30;;;;;;;;;;700989;28;4423;-67
2024/01/01 12:01:51;;;;;;;5.70;1.20;;;;;;;;;;700483;28;897;-68
2024/01/01 12:02:11;;;;;;;4.97;1.10;;;;;;;;;;700514;28;1025;-71
2024/01/01 12:02:32;;;;;;;6.05;1.20;;;;;;;;;;699222;28;1326;-70
2024/01/01 12:02:52;;;;;;;7.20;1.60;;;;;;;;;;701379;28;897;-70
2024/01/01 12:03:13;;;;;;;6.30;1.57;;;;;;;;;;702940;28;973;-71
2024/01/01 12:03:33;;;;;;;6.97;1.57;;;;;;;;;;702417;28;1071;-69
2024/01/01 12:03:53;;;;;;;6.30;1.65;;;;;;;;;;700778;28;1286;-70
2024/01/01 12:04:14;;;;;;;4.37;1.07;;;;;;;;;;700805;28;798;-70
2024/01/01 12:04:34;;;;;;;5.07;1.60;;;;;;;;;;697159;28;4592;-71
2024/01/01 12:04:55;;;;;;;7.22;2.10;;;;;;;;;;697785;28;971;-70
2024/01/01 12:05:18;;;;;;;6.27;1.67;;;;;;;;;;700459;28;845;-69
2024/01/01 12:05:41;;;;;;;6.85;1.63;;;;;;;;;;698890;28;1017;-69
2024/01/01 12:06:02;;;;;;;6.57;1.67;;;;;;;;;;700419;28;991;-69
2024/01/01 12:06:22;;;;;;;7.97;1.60;;;;;;;;;;699047;28;944;-70
2024/01/01 12:06:48;;;;;;;6.93;1.50;;;;;;;;;;699097;28;1286;-69
2024/01/01 12:07:08;;;;;;;5.88;1.40;;;;;;;;;;700566;28;953;-71
2024/01/01 12:07:29;;;;;;;5.90;1.40;;;;;;;;;;700345;28;4471;-69
2024/01/01 12:07:49;;;;;;;5.18;1.40;;;;;;;;;;702455;28;1119;-69
2024/01/01 12:08:12;;;;;;;5.87;1.23;;;;;;;;;;704601;28;804;-71
2024/01/01 12:08:32;;;;;;;6.53;1.23;;;;;;;;;;703250;28;1321;-69
2024/01/01 12:09:06;;;;;;;9.02;1.83;;;;;;;;;;705819;28;943;-69
2024/01/01 12:09:26;;;;;;;6.43;1.58;;;;;;;;;;704146;28;3597;-68
2024/01/01 12:09:49;;;;;;;6.00;1.60;;;;;;;;;;705170;28;1756;-68
2024/01/01 12:10:10;;;;;;;4.93;1.50;;;;;;;;;;705400;28;1256;-73
2024/01/01 12:10:33;;;;;;;5.42;1.40;;;;;;;;;;704932;28;5071;-69
2024/01/01 12:10:59;;;;;;;6.45;1.63;;;;;;;;;;704718;28;991;-70
2024/01/01 12:11:19;;;;;;;8.10;1.63;;;;;;;;;;705894;28;986;-71
2024/01/01 12:11:40;;;;;;;6.93;1.47;;;;;;;;;;703973;28;1809;-69
2024/01/01 12:12:02;;;;;;;8.20;1.70;;;;;;;;;;704554;28;951;-70
2024/01/01 12:12:22;;;;;;;6.32;1.45;;;;;;;;;;705691;28;1031;-71
2024/01/01 12:12:43;;;;;;;6.53;1.43;;;;;;;;;;701946;28;1856;-70
2024/01/01 12:13:05;;;;;;;7.80;1.50;;;;;;;;;;705005;28;1027;-72
2024/01/01 12:13:25;;;;;;;6.38;1.38;;;;;;;;;;704738;28;1351;-69
2024/01/01 12:13:55;;;;;;;6.20;1.67;;;;;;;;;;702679;28;4201;-72
2024/01/01 12:14:23;;;;;;;6.20;1.42;;;;;;;;;;704639;28;1027;-70
2024/01/01 12:14:43;;;;;;;7.18;1.30;;;;;;;;;;703648;28;1395;-69
2024/01/01 12:15:11;;;;;;;6.45;1.50;;;;;;;;;;705227;28;851;-71
2024/01/01 12:15:32;;;;;;;8.50;1.40;;;;;;;;;;703962;28;1675;-70
2024/01/01 12:15:53;;;;;;;7.67;1.27;;;;;;;;;;704488;27;861;-72
2024/01/01 12:16:16;;;;;;;5.28;1.10;;;;;;;;;;705062;28;969;-70
2024/01/01 12:16:37;;;;;;;5.72;1.25;;;;;;;;;;702690;27;4518;-71
2024/01/01 12:16:57;;;;;;;5.47;1.38;;;;;;;;;;704582;27;3193;-69
2024/01/01 12:17:17;;;;;;;7.30;1.70;;;;;;;;;;704006;28;802;-69
2024/01/01 12:17:38;;;;;;;5.30;1.27;;;;;;;;;;703898;28;1843;-69
2024/01/01 12:17:59;;;;;;;5.22;1.58;;;;;;;;;;704455;28;1374;-67
2024/01/01 12:18:20;;;;;;;6.78;1.90;;;;;;;;;;705179;27;868;-69
2024/01/01 12:18:40;;;;;;;7.30;1.48;;;;;;;;;;704379;28;1769;-70
2024/01/01 12:19:02;;;;;;;8.33;1.67;;;;;;;;;;704577;28;877;-69
2024/01/01 12:19:23;;;;;;;6.07;1.35;;;;;;;;;;705563;28;1039;-70
2024/01/01 12:19:43;;;;;;;6.03;1.35;;;;;;;;;;702397;28;4420;-68
2024/01/01 12:20:04;;;;;;;5.27;1.37;;;;;;;;;;704613;28;812;-69
2024/01/01 12:20:25;;;;;;;7.20;1.60;;;;;;;;;;704385;28;1095;-70
2024/01/01 12:20:45;;;;;;;5.85;1.40;;;;;;;;;;704341;28;1428;-68
2024/01/01 12:21:05;;;;;;;8.27;2.20;;;;;;;;;;705327;28;895;-72
2024/01/01 12:21:36;;;;;;;7.63;1.95;;;;;;;;;;705237;28;1331;-71
2024/01/01 12:21:57;;;;;;;7.25;1.50;;;;;;;;;;704355;28;912;-68
2024/01/01 12:22:20;;;;;;;6.30;1.27;;;;;;;;;;705178;28;1375;-69
2024/01/01 12:22:40;;;;;;;6.75;1.50;;;;;;;;;;702695;27;4540;-70
2024/01/01 12:23:13;;;;;;;6.63;1.93;;;;;;;;;;706072;28;1260;-69
2024/01/01 12:23:34;;;;;;;6.50;1.58;;;;;;;;;;703019;27;1501;-70
2024/01/01 12:24:03;;;;;;;8.55;1.75;;;;;;;;;;705816;27;950;-70
2024/01/01 12:24:23;;;;;;;8.00;1.60;;;;;;;;;;704287;27;1186;-70
2024/01/01 12:24:44;;;;;;;7.67;1.53;;;;;;;;;;703933;27;1986;-68
2024/01/01 12:25:05;;;;;;;5.07;1.60;;;;;;;;;;702270;28;2663;-74
2024/01/01 12:25:26;;;;;;;3.92;1.50;;;;;;;;;;698084;28;1167;-70
2024/01/01 12:25:46;;;;;;;4.95;1.52;;;;;;;;;;696510;28;4555;-68
2024/01/01 12:26:06;;;;;;;5.70;1.70;;;;;;;;;;697727;28;897;-69
2024/01/01 12:26:27;;;;;;;6.13;1.40;;;;;;;;;;700357;28;960;-69
2024/01/01 12:26:51;;;;;;;9.10;1.50;;;;;;;;;;699175;28;1933;-69
2024/01/01 12:27:14;;;;;;;7.20;1.40;;;;;;;;;;700833;28;1200;-71
2024/01/01 12:27:34;;;;;;;6.53;1.48;;;;;;;;;;702645;27;898;-71
2024/01/01 12:28:02;;;;;;;7.68;1.55;;;;;;;;;;694721;27;1218;-69
2024/01/01 12:28:22;;;;;;;7.03;1.63;;;;;;;;;;692978;27;1041;-70
2024/01/01 12:28:42;;;;;;;6.17;1.50;;;;;;;;;;694039;27;4256;-69
2024/01/01 12:29:12;;;;;;;5.27;1.50;;;;;;;;;;699329;27;2034;-70
2024/01/01 12:29:32;;;;;;;5.43;1.40;;;;;;;;;;704074;27;1170;-72
2024/01/01 12:29:57;;;;;;;6.67;1.60;;;;;;;;;;700618;27;2037;-70
2024/01/01 12:30:24;;;;;;;8.10;2.00;;;;;;;;;;704422;27;1096;-74
2024/01/01 12:30:45;;;;;;;7.50;1.55;;;;;;;;;;698737;28;1804;-69
2024/01/01 12:31:05;;;;;;;6.20;1.70;;;;;;;;;;695780;28;1269;-70
2024/01/01 12:31:25;;;;;;;9.77;2.17;;;;;;;;;;697970;28;1215;-71
2024/01/01 12:31:47;;;;;;;8.13;1.70;;;;;;;;;;695510;28;4219;-72
2024/01/01 12:32:07;;;;;;;6.18;1.75;;;;;;;;;;697061;28;1731;-70
2024/01/01 12:32:27;;;;;;;6.73;2.07;;;;;;;;;;697723;28;1271;-69
2024/01/01 12:32:47;;;;;;;6.32;1.48;;;;;;;;;;694408;28;1693;-70
2024/01/01 12:33:12;;;;;;;7.80;1.70;;;;;;;;;;695840;28;1312;-70
2024/01/01 12:33:32;;;;;;;7.55;1.73;;;;;;;;;;694778;28;916;-70
2024/01/01 12:33:52;;;;;;;7.32;1.50;;;;;;;;;;693560;28;1655;-70
2024/01/01 12:34:17;;;;;;;7.30;1.40;;;;;;;;;;697482;28;1270;-71
2024/01/01 12:34:37;;;;;;;8.13;1.40;;;;;;;;;;698867;28;4307;-70
2024/01/01 12:34:57;;;;;;;6.55;1.50;;;;;;;;;;701691;28;1325;-72
2024/01/01 12:35:18;;;;;;;5.63;1.30;;;;;;;;;;702792;27;1248;-71
2024/01/01 12:35:38;;;;;;;5.63;1.30;;;;;;;;;;700650;28;1500;-70
2024/01/01 12:35:58;;;;;;;6.75;1.52;;;;;;;;;;703623;28;1046;-76
2024/01/01 12:36:18;;;;;;;7.00;1.70;;;;;;;;;;703339;28;925;-70
2024/01/01 12:36:39;;;;;;;8.23;1.80;;;;;;;;;;701925;28;1632;-72
2024/01/01 12:37:00;;;;;;;6.90;1.50;;;;;;;;;;702143;28;1450;-70
2024/01/01 12:37:21;;;;;;;7.40;1.42;;;;;;;;;;705267;27;1110;-71
2024/01/01 12:37:41;;;;;;;7.57;1.35;;;;;;;;;;699812;28;4221;-71
2024/01/01 12:38:02;;;;;;;6.30;1.60;;;;;;;;;;701861;28;1114;-70
2024/01/01 12:38:22;;;;;;;8.35;1.80;;;;;;;;;;701824;28;1043;-70
2024/01/01 12:38:43;;;;;;;5.47;1.38;;;;;;;;;;702430;27;2056;-71
2024/01/01 12:39:03;;;;;;;5.97;1.37;;;;;;;;;;703531;27;1134;-71
2024/01/01 12:39:23;;;;;;;4.40;1.30;;;;;;;;;;702897;28;1408;-70
2024/01/01 12:39:43;;;;;;;7.50;1.80;;;;;;;;;;702032;28;6478;-70
2024/01/01 12:40:04;;;;;;;8.17;2.00;;;;;;;;;;701540;28;1101;-68
2024/01/01 12:40:29;;;;;;;5.65;1.50;;;;;;;;;;699857;28;987;-70
2024/01/01 12:40:49;;;;;;;5.07;1.30;;;;;;;;;;695483;28;6307;-70
2024/01/01 12:41:15;;;;;;;5.73;1.50;;;;;;;;;;697518;28;1005;-69
2024/01/01 12:41:36;;;;;;;7.13;1.85;;;;;;;;;;695605;28;1558;-69
2024/01/01 12:41:56;;;;;;;5.55;1.67;;;;;;;;;;697251;28;937;-70
2024/01/01 12:42:17;;;;;;;7.27;1.57;;;;;;;;;;699305;28;1226;-70
2024/01/01 12:42:37;;;;;;;6.57;1.63;;;;;;;;;;700052;28;1838;-72
2024/01/01 12:42:57;;;;;;;5.53;1.60;;;;;;;;;;703515;28;822;-71
2024/01/01 12:43:18;;;;;;;6.60;1.50;;;;;;;;;;703136;28;1229;-71
2024/01/01 12:43:38;;;;;;;5.73;1.60;;;;;;;;;;701488;28;4322;-71
2024/01/01 12:43:59;;;;;;;7.67;1.90;;;;;;;;;;703376;28;1308;-71
2024/01/01 12:44:19;;;;;;;8.73;1.92;;;;;;;;;;702374;27;956;-71
2024/01/01 12:44:39;;;;;;;7.40;1.90;;;;;;;;;;701044;27;936;-73
2024/01/01 12:44:59;;;;;;;6.57;1.77;;;;;;;;;;697447;28;1459;-69
2024/01/01 12:45:20;;;;;;;7.17;1.77;;;;;;;;;;696768;28;2495;-72
2024/01/01 12:45:40;;;;;;;6.47;1.50;;;;;;;;;;698140;28;1722;-71
2024/01/01 12:46:00;;;;;;;5.25;1.30;;;;;;;;;;699741;28;1179;-72
2024/01/01 12:46:20;;;;;;;7.80;1.77;;;;;;;;;;700273;28;925;-69
2024/01/01 12:46:41;;;;;;;9.47;1.80;;;;;;;;;;697971;28;4276;-71
2024/01/01 12:47:02;;;;;;;6.50;1.63;;;;;;;;;;702736;27;1129;-70
2024/01/01 12:47:22;;;;;;;6.93;1.60;;;;;;;;;;700706;28;965;-70
2024/01/01 12:47:43;;;;;;;5.60;1.33;;;;;;;;;;699529;28;1853;-74
2024/01/01 12:48:04;;;;;;;6.13;1.40;;;;;;;;;;700864;28;1299;-73
2024/01/01 12:48:24;;;;;;;6.13;1.35;;;;;;;;;;702640;28;1010;-71
2024/01/01 12:48:45;;;;;;;7.30;1.37;;;;;;;;;;698778;28;1677;-71
2024/01/01 12:49:06;;;;;;;6.83;1.60;;;;;;;;;;701444;28;1913;-70
2024/01/01 12:49:26;;;;;;;7.25;1.58;;;;;;;;;;701978;28;4389;-66
2024/01/01 12:49:46;;;;;;;6.63;1.80;;;;;;;;;;701440;27;1414;-70
2024/01/01 12:50:07;;;;;;;6.50;1.67;;;;;;;;;;699823;28;1212;-70
2024/01/01 12:50:27;;;;;;;8.35;1.85;;;;;;;;;;699678;28;1237;-69
2024/01/01 12:50:48;;;;;;;7.43;1.80;;;;;;;;;;700809;28;1711;-69
2024/01/01 12:51:08;;;;;;;8.47;1.83;;;;;;;;;;699227;28;1469;-66
2024/01/01 12:51:28;;;;;;;7.23;1.80;;;;;;;;;;700322;28;1306;-70
2024/01/01 12:51:50;;;;;;;6.00;1.65;;;;;;;;;;698508;28;1522;-69
2024/01/01 12:52:10;;;;;;;6.70;1.63;;;;;;;;;;700034;28;1399;-70
2024/01/01 12:52:30;;;;;;;7.95;1.80;;;;;;;;;;698980;28;4377;-69
2024/01/01 12:52:50;;;;;;;9.73;1.73;;;;;;;;;;699788;28;2274;-67
2024/01/01 12:53:11;;;;;;;6.10;1.40;;;;;;;;;;699745;28;1021;-69
2024/01/01 12:53:31;;;;;;;9.32;1.90;;;;;;;;;;700551;28;983;-69
2024/01/01 12:53:53;;;;;;;8.87;2.00;;;;;;;;;;702062;27;2381;-68
2024/01/01 12:54:13;;;;;;;6.93;1.90;;;;;;;;;;703936;27;1067;-70
2024/01/01 12:54:34;;;;;;;6.67;1.83;;;;;;;;;;703280;27;952;-68
2024/01/01 12:54:55;;;;;;;7.85;1.70;;;;;;;;;;702843;28;1666;-70
2024/01/01 12:55:15;;;;;;;10.90;1.80;;;;;;;;;;701714;28;2294;-70
2024/01/01 12:55:35;;;;;;;7.17;1.60;;;;;;;;;;701845;28;4396;-67
2024/01/01 12:55:56;;;;;;;6.67;1.90;;;;;;;;;;703282;28;999;-70
2024/01/01 12:56:16;;;;;;;7.87;2.03;;;;;;;;;;702697;28;1303;-69
2024/01/01 12:56:36;;;;;;;8.40;1.90;;;;;;;;;;701862;27;1887;-68
2024/01/01 12:56:57;;;;;;;9.00;2.00;;;;;;;;;;702378;28;1635;-71
2024/01/01 12:57:18;;;;;;;8.93;1.88;;;;;;;;;;701612;28;1015;-70
2024/01/01 12:57:38;;;;;;;9.03;1.80;;;;;;;;;;701988;27;1777;-70
2024/01/01 12:57:58;;;;;;;7.45;1.88;;;;;;;;;;703042;28;877;-70
2024/01/01 12:58:19;;;;;;;6.47;1.80;;;;;;;;;;702722;27;1007;-69
2024/01/01 12:58:42;;;;;;;9.30;2.42;;;;;;;;;;701666;27;4488;-69
2024/01/01 12:59:03;;;;;;;6.22;1.80;;;;;;;;;;704484;27;1468;-70
2024/01/01 12:59:23;;;;;;;7.97;1.70;;;;;;;;;;705418;27;1026;-67
2024/01/01 12:59:43;;;;;;;7.53;1.63;;;;;;;;;;704285;27;1432;-70
2024/01/01 13:00:04;;;;;;;8.17;2.30;;;;;;;;;;705002;27;1094;-67
2024/01/01 13:00:24;;;;;;;9.93;2.70;;;;;;;;;;706148;27;1149;-71
2024/01/01 13:00:45;;;;;;;8.33;1.93;;;;;;;;;;705465;27;1740;-70
2024/01/01 13:01:05;;;;;;;7.88;2.08;;;;;;;;;;703023;27;1018;-70
2024/01/01 13:01:25;;;;;;;8.87;2.03;;;;;;;;;;704016;28;920;-71
2024/01/01 13:01:46;;;;;;;9.43;1.97;;;;;;;;;;700424;28;4403;-69
2024/01/01 13:02:06;;;;;;;9.20;2.03;;;;;;;;;;702477;27;1135;-70
2024/01/01 13:02:27;;;;;;;9.40;2.17;;;;;;;;;;701594;28;934;-73
2024/01/01 13:02:47;;;;;;;7.97;2.30;;;;;;;;;;701721;28;2247;-70
2024/01/01 13:03:07;;;;;;;6.77;1.77;;;;;;;;;;701545;28;1035;-71
2024/01/01 13:03:27;;;;;;;10.65;2.00;;;;;;;;;;703142;28;920;-70
2024/01/01 13:03:48;;;;;;;14.30;2.80;;;;;;;;;;701237;28;1861;-68
2024/01/01 13:04:08;;;;;;;9.97;2.20;;;;;;;;;;703769;27;1120;-71
2024/01/01 13:04:28;;;;;;;10.40;2.00;;;;;;;;;;699149;28;4500;-71
2024/01/01 13:04:49;;;;;;;8.87;1.80;;;;;;;;;;699016;28;2203;-70
2024/01/01 13:05:09;;;;;;;8.85;2.13;;;;;;;;;;700215;28;1274;-70
2024/01/01 13:05:29;;;;;;;7.73;2.20;;;;;;;;;;701221;28;1010;-70
2024/01/01 13:05:50;;;;;;;7.17;2.07;;;;;;;;;;698471;28;3358;-68
2024/01/01 13:06:15;;;;;;;7.55;2.00;;;;;;;;;;700233;28;1002;-67
2024/01/01 13:06:36;;;;;;;8.38;2.15;;;;;;;;;;702288;28;1319;-68
2024/01/01 13:06:57;;;;;;;8.30;1.90;;;;;;;;;;702620;28;1698;-69
2024/01/01 13:07:17;;;;;;;8.80;2.20;;;;;;;;;;702102;27;1507;-72
2024/01/01 13:07:37;;;;;;;10.30;2.50;;;;;;;;;;697932;28;4303;-68
2024/01/01 13:07:57;;;;;;;8.93;1.87;;;;;;;;;;699868;28;877;-71
2024/01/01 13:08:18;;;;;;;8.30;1.90;;;;;;;;;;699456;28;1039;-66
2024/01/01 13:08:38;;;;;;;8.87;2.10;;;;;;;;;;698888;28;1681;-71
2024/01/01 13:08:58;;;;;;;9.55;2.00;;;;;;;;;;698599;28;1392;-70
2024/01/01 13:09:19;;;;;;;8.33;1.80;;;;;;;;;;700181;28;1909;-68
2024/01/01 13:09:39;;;;;;;10.37;2.00;;;;;;;;;;698773;28;1597;-70
2024/01/01 13:10:00;;;;;;;7.55;2.15;;;;;;;;;;700274;28;1169;-67
2024/01/01 13:10:22;;;;;;;7.97;2.50;;;;;;;;;;700674;28;1260;-71
2024/01/01 13:10:42;;;;;;;9.98;2.40;;;;;;;;;;697693;28;4814;-67
2024/01/01 13:11:06;;;;;;;8.98;1.95;;;;;;;;;;703196;28;1008;-71
2024/01/01 13:11:26;;;;;;;7.32;1.50;;;;;;;;;;703139;28;993;-68
2024/01/01 13:11:46;;;;;;;7.73;1.77;;;;;;;;;;702170;28;1452;-70
2024/01/01 13:12:07;;;;;;;7.70;2.10;;;;;;;;;;702192;28;1017;-68
2024/01/01 13:12:28;;;;;;;8.18;1.90;;;;;;;;;;703966;28;870;-70
2024/01/01 13:12:48;;;;;;;9.30;1.73;;;;;;;;;;700318;28;2295;-69
2024/01/01 13:13:08;;;;;;;9.60;2.30;;;;;;;;;;703900;27;1680;-71
2024/01/01 13:13:29;;;;;;;10.80;2.30;;;;;;;;;;702908;27;4371;-70
2024/01/01 13:13:49;;;;;;;10.68;2.33;;;;;;;;;;700981;28;2069;-72
2024/01/01 13:14:09;;;;;;;9.27;2.30;;;;;;;;;;702590;27;1002;-70
2024/01/01 13:14:31;;;;;;;10.25;1.88;;;;;;;;;;704081;28;1037;-67
2024/01/01 13:14:51;;;;;;;10.85;1.98;;;;;;;;;;701993;27;1750;-69
2024/01/01 13:15:11;;;;;;;10.50;1.90;;;;;;;;;;703143;28;1478;-71
2024/01/01 13:15:36;;;;;;;10.93;2.60;;;;;;;;;;703751;27;1006;-66
2024/01/01 13:15:57;;;;;;;8.57;2.00;;;;;;;;;;701968;28;1811;-71
2024/01/01 13:16:17;;;;;;;9.80;2.60;;;;;;;;;;702641;27;1169;-70
2024/01/01 13:16:37;;;;;;;10.10;1.92;;;;;;;;;;700410;28;4513;-68
2024/01/01 13:17:03;;;;;;;8.53;1.90;;;;;;;;;;701349;28;1439;-71
2024/01/01 13:17:24;;;;;;;7.72;2.00;;;;;;;;;;702295;27;1117;-71
2024/01/01 13:17:44;;;;;;;10.90;2.20;;;;;;;;;;701874;28;1896;-68
2024/01/01 13:18:05;;;;;;;11.77;2.20;;;;;;;;;;702992;27;1311;-67
2024/01/01 13:18:25;;;;;;;10.18;2.08;;;;;;;;;;703238;28;930;-67
2024/01/01 13:18:45;;;;;;;11.00;2.30;;;;;;;;;;701928;28;1417;-70
2024/01/01 13:19:05;;;;;;;6.83;1.80;;;;;;;;;;702338;28;1208;-70
2024/01/01 13:19:26;;;;;;;9.02;1.95;;;;;;;;;;702744;28;939;-71
2024/01/01 13:19:47;;;;;;;10.63;2.22;;;;;;;;;;701443;28;4977;-70
2024/01/01 13:20:08;;;;;;;9.20;2.20;;;;;;;;;;701671;28;1152;-67
2024/01/01 13:20:28;;;;;;;7.28;1.90;;;;;;;;;;703826;28;1085;-66
2024/01/01 13:20:48;;;;;;;8.48;2.08;;;;;;;;;;702621;28;1730;-71
2024/01/01 13:21:09;;;;;;;10.00;2.30;;;;;;;;;;703065;27;1105;-71
2024/01/01 13:21:29;;;;;;;10.93;2.50;;;;;;;;;;702818;28;1063;-70
2024/01/01 13:21:49;;;;;;;10.55;2.67;;;;;;;;;;701860;28;1811;-71
2024/01/01 13:22:13;;;;;;;10.03;2.47;;;;;;;;;;703358;28;1431;-71
2024/01/01 13:22:33;;;;;;;8.00;1.95;;;;;;;;;;702171;28;4525;-70
2024/01/01 13:22:54;;;;;;;8.13;1.90;;;;;;;;;;702118;28;1441;-70
2024/01/01 13:23:16;;;;;;;9.03;2.20;;;;;;;;;;704799;27;966;-67
2024/01/01 13:23:37;;;;;;;8.90;2.03;;;;;;;;;;702674;28;1626;-71
2024/01/01 13:23:58;;;;;;;9.30;2.13;;;;;;;;;;701368;28;2389;-72
2024/01/01 13:24:18;;;;;;;9.30;2.10;;;;;;;;;;702122;28;1286;-68
2024/01/01 13:24:39;;;;;;;9.02;2.10;;;;;;;;;;701370;27;1521;-68
2024/01/01 13:24:59;;;;;;;8.30;1.90;;;;;;;;;;702987;28;1572;-68
2024/01/01 13:25:22;;;;;;;9.90;2.13;;;;;;;;;;702051;28;1109;-70
2024/01/01 13:25:45;;;;;;;10.63;2.33;;;;;;;;;;700404;28;4459;-71
2024/01/01 13:26:05;;;;;;;9.57;1.92;;;;;;;;;;701761;28;1094;-68
2024/01/01 13:26:28;;;;;;;9.50;1.92;;;;;;;;;;703215;28;1075;-67
2024/01/01 13:26:48;;;;;;;9.88;1.98;;;;;;;;;;701451;27;1680;-71
2024/01/01 13:27:17;;;;;;;10.00;2.00;;;;;;;;;;702686;28;1526;-71
2024/01/01 13:27:38;;;;;;;12.07;3.13;;;;;;;;;;701728;28;2301;-68
2024/01/01 13:27:58;;;;;;;10.53;2.40;;;;;;;;;;699681;28;1781;-74
2024/01/01 13:28:19;;;;;;;8.15;1.98;;;;;;;;;;699835;28;3779;-69
2024/01/01 13:28:39;;;;;;;7.85;2.20;;;;;;;;;;699584;27;4314;-69
2024/01/01 13:29:00;;;;;;;7.17;2.13;;;;;;;;;;703373;28;928;-68
2024/01/01 13:29:21;;;;;;;7.68;2.03;;;;;;;;;;701965;27;1138;-67
2024/01/01 13:29:41;;;;;;;10.63;2.08;;;;;;;;;;699105;28;1839;-69
2024/01/01 13:30:02;;;;;;;11.30;2.10;;;;;;;;;;702393;28;1011;-68
2024/01/01 13:30:23;;;;;;;11.25;2.35;;;;;;;;;;700255;28;960;-68
2024/01/01 13:30:43;;;;;;;10.60;2.37;;;;;;;;;;699305;28;2282;-70
2024/01/01 13:31:04;;;;;;;11.00;2.17;;;;;;;;;;700913;28;1162;-67
2024/01/01 13:31:24;;;;;;;9.43;1.87;;;;;;;;;;701178;28;1359;-69
2024/01/01 13:31:44;;;;;;;9.17;1.93;;;;;;;;;;701320;27;4288;-70
2024/01/01 13:32:05;;;;;;;10.73;2.10;;;;;;;;;;699706;28;1226;-68
2024/01/01 13:32:25;;;;;;;8.88;2.17;;;;;;;;;;702515;28;1075;-68
2024/01/01 13:32:45;;;;;;;10.17;2.70;;;;;;;;;;700906;28;2407;-70
2024/01/01 13:33:06;;;;;;;9.93;2.28;;;;;;;;;;702119;27;1172;-70
2024/01/01 13:33:27;;;;;;;14.63;2.80;;;;;;;;;;703213;28;1344;-68
2024/01/01 13:33:47;;;;;;;9.47;1.83;;;;;;;;;;701410;28;1983;-69
2024/01/01 13:34:07;;;;;;;10.40;1.98;;;;;;;;;;703444;27;1169;-70
2024/01/01 13:34:27;;;;;;;9.57;2.20;;;;;;;;;;703384;28;4247;-71
2024/01/01 13:34:48;;;;;;;11.30;2.00;;;;;;;;;;701557;27;1818;-68
2024/01/01 13:35:09;;;;;;;11.52;2.70;;;;;;;;;;703695;27;909;-69
2024/01/01 13:35:29;;;;;;;11.65;2.67;;;;;;;;;;703564;28;927;-69
2024/01/01 13:35:49;;;;;;;11.63;2.60;;;;;;;;;;700223;28;1794;-70
2024/01/01 13:36:10;;;;;;;16.43;3.13;;;;;;;;;;702922;27;1006;-70
2024/01/01 13:36:30;;;;;;;14.68;2.85;;;;;;;;;;704326;27;892;-67
2024/01/01 13:36:51;;;;;;;9.67;2.63;;;;;;;;;;702275;27;1471;-71
2024/01/01 13:37:11;;;;;;;10.45;2.55;;;;;;;;;;702158;28;1300;-70
2024/01/01 13:37:32;;;;;;;9.63;2.10;;;;;;;;;;701764;28;4325;-67
2024/01/01 13:37:52;;;;;;;10.53;1.90;;;;;;;;;;701750;28;1836;-69
2024/01/01 13:38:12;;;;;;;9.67;2.10;;;;;;;;;;702900;28;1086;-67
2024/01/01 13:38:35;;;;;;;11.15;2.20;;;;;;;;;;703224;28;1391;-67
2024/01/01 13:38:56;;;;;;;11.23;2.13;;;;;;;;;;699475;28;2557;-68
2024/01/01 13:39:17;;;;;;;11.38;2.30;;;;;;;;;;701438;28;1459;-68
2024/01/01 13:39:37;;;;;;;10.37;2.20;;;;;;;;;;701456;27;6312;-68
2024/01/01 13:39:57;;;;;;;11.45;2.25;;;;;;;;;;702685;28;1849;-69
2024/01/01 13:40:17;;;;;;;10.77;2.00;;;;;;;;;;702003;28;1565;-69
2024/01/01 13:40:41;;;;;;;11.70;1.93;;;;;;;;;;701134;28;4405;-71
2024/01/01 13:41:01;;;;;;;10.38;2.10;;;;;;;;;;701761;27;863;-66
2024/01/01 13:41:21;;;;;;;9.00;2.03;;;;;;;;;;703772;27;1081;-69
2024/01/01 13:41:42;;;;;;;10.60;2.03;;;;;;;;;;699832;28;1196;-69